Time;durP1;ratioP1;P1;durP2;ratioP2;P2;SDS_P1;SDS_P2;PMS_P1;PMS_P2;Temp;Humidity;BMP_temperature;BMP_pressure;BME280_temperature;BME280_humidity;BME280_pressure;Samples;Min_cycle;Max_cycle;Signal;HPM_P1;HPM_P2
2022/08/27 00:01:05;;;;;;;6.95;1.38;;;15.00;99.90;;;;;;4973858;28;20063;-61
2022/08/27 00:03:30;;;;;;;3.80;1.15;;;15.00;99.90;;;;;;4972363;28;20474;-61
2022/08/27 00:05:56;;;;;;;5.72;0.90;;;15.00;99.90;;;;;;4975360;28;20490;-61
2022/08/27 00:08:21;;;;;;;3.13;0.90;;;15.00;99.90;;;;;;4969329;28;20042;-61
2022/08/27 00:10:47;;;;;;;3.25;0.85;;;15.00;99.90;;;;;;4970884;28;20077;-61
2022/08/27 00:13:14;;;;;;;3.00;1.70;;;15.00;99.90;;;;;;4968148;28;20077;-60
2022/08/27 00:15:40;;;;;;;6.18;1.00;;;15.00;99.90;;;;;;4971583;28;20026;-60
2022/08/27 00:18:06;;;;;;;5.78;1.00;;;15.00;99.90;;;;;;4971558;28;20029;-61
2022/08/27 00:20:32;;;;;;;6.03;1.73;;;15.00;99.90;;;;;;4967631;28;20035;-61
2022/08/27 00:22:58;;;;;;;4.72;1.25;;;15.10;99.90;;;;;;4971294;28;20043;-61
2022/08/27 00:25:24;;;;;;;6.43;1.30;;;15.10;99.90;;;;;;4968820;28;20026;-60
2022/08/27 00:27:50;;;;;;;4.25;1.20;;;15.20;99.90;;;;;;4970804;28;20161;-60
2022/08/27 00:30:18;;;;;;;5.13;1.02;;;15.10;99.90;;;;;;4967320;28;20027;-60
2022/08/27 00:32:44;;;;;;;5.45;1.40;;;15.00;99.90;;;;;;4969786;28;20031;-60
2022/08/27 00:35:11;;;;;;;4.38;1.60;;;14.90;99.90;;;;;;4970392;28;20056;-61
2022/08/27 00:37:37;;;;;;;5.15;0.82;;;14.90;99.90;;;;;;4968546;28;20026;-61
2022/08/27 00:40:05;;;;;;;4.15;1.20;;;14.80;99.90;;;;;;4970517;28;20038;-60
2022/08/27 00:42:31;;;;;;;3.08;0.70;;;14.70;99.90;;;;;;4969278;28;20051;-60
2022/08/27 00:44:58;;;;;;;2.47;1.10;;;14.60;99.90;;;;;;4968808;28;20031;-60
2022/08/27 00:47:26;;;;;;;3.38;1.35;;;14.60;99.90;;;;;;4969411;28;20034;-61
2022/08/27 00:49:57;;;;;;;4.55;0.82;;;14.60;99.90;;;;;;4970080;28;20035;-61
2022/08/27 00:52:41;;;;;;;4.22;1.13;;;14.50;99.90;;;;;;4969190;28;20027;-61
2022/08/27 00:55:13;;;;;;;3.92;1.10;;;14.50;99.90;;;;;;4963553;28;20033;-60
2022/08/27 00:57:41;;;;;;;2.75;0.90;;;14.40;99.90;;;;;;4969742;28;20039;-60
2022/08/27 01:00:10;;;;;;;5.38;1.00;;;14.40;99.90;;;;;;4969914;28;20034;-60
2022/08/27 01:02:36;;;;;;;3.28;1.10;;;14.30;99.90;;;;;;4961294;28;20035;-60
2022/08/27 01:05:07;;;;;;;4.32;1.20;;;14.30;99.90;;;;;;4964500;28;20400;-61
2022/08/27 01:07:38;;;;;;;5.22;1.25;;;14.30;99.90;;;;;;4959469;28;20031;-60
2022/08/27 01:10:09;;;;;;;6.32;1.38;;;14.30;99.90;;;;;;4969309;28;20037;-60
2022/08/27 01:12:35;;;;;;;7.93;1.50;;;14.30;99.90;;;;;;4968605;28;20030;-60
2022/08/27 01:15:05;;;;;;;6.88;1.63;;;14.30;99.90;;;;;;4968894;28;20030;-60
2022/08/27 01:17:31;;;;;;;5.43;1.95;;;14.30;99.90;;;;;;4968900;28;20034;-61
2022/08/27 01:20:01;;;;;;;8.70;1.80;;;14.30;99.90;;;;;;4969590;28;20030;-60
2022/08/27 01:22:26;;;;;;;4.47;1.60;;;14.20;99.90;;;;;;4968530;28;20054;-61
2022/08/27 01:24:57;;;;;;;4.65;1.77;;;14.10;99.90;;;;;;4968553;28;20474;-61
2022/08/27 01:27:26;;;;;;;9.88;1.48;;;14.10;99.90;;;;;;4965881;28;20035;-61
2022/08/27 01:29:52;;;;;;;2.22;1.30;;;14.10;99.90;;;;;;4969226;28;20118;-60
2022/08/27 01:32:24;;;;;;;4.03;1.30;;;14.10;99.90;;;;;;4967612;28;20035;-61
2022/08/27 01:34:50;;;;;;;;;;;14.10;99.90;;;;;;4968390;28;20406;-61
2022/08/27 01:37:19;;;;;;;3.08;1.27;;;14.00;99.90;;;;;;4968740;28;19936;-61
2022/08/27 01:39:45;;;;;;;5.50;1.10;;;13.90;99.90;;;;;;4969630;28;20110;-61
2022/08/27 01:42:17;;;;;;;3.13;1.40;;;13.90;99.90;;;;;;4965702;28;20508;-60
2022/08/27 01:44:55;;;;;;;4.20;1.92;;;13.80;99.90;;;;;;4967218;28;20019;-61
2022/08/27 01:47:24;;;;;;;4.07;2.42;;;13.70;99.90;;;;;;4963223;28;20031;-60
2022/08/27 01:49:50;;;;;;;4.85;2.00;;;13.80;99.90;;;;;;4973372;28;20030;-60
2022/08/27 01:52:19;;;;;;;5.43;2.22;;;13.70;99.90;;;;;;4972491;28;20118;-60
2022/08/27 01:54:46;;;;;;;4.32;2.03;;;13.80;99.90;;;;;;4973533;28;20494;-60
2022/08/27 01:57:13;;;;;;;5.00;2.03;;;13.70;99.90;;;;;;4972636;28;20105;-60
2022/08/27 01:59:39;;;;;;;4.38;1.40;;;13.70;99.90;;;;;;4966979;28;20026;-60
2022/08/27 02:02:06;;;;;;;4.25;1.63;;;13.70;99.90;;;;;;4972772;28;20045;-60
2022/08/27 02:04:32;;;;;;;3.80;1.33;;;13.70;99.90;;;;;;4966407;28;20027;-60
2022/08/27 02:06:58;;;;;;;3.20;1.60;;;13.60;99.90;;;;;;4968952;28;20023;-60
2022/08/27 02:09:24;;;;;;;3.30;1.33;;;13.50;99.90;;;;;;4957338;28;20431;-60
2022/08/27 02:11:49;;;;;;;6.65;1.50;;;13.50;99.90;;;;;;4962264;28;20118;-59
2022/08/27 02:14:15;;;;;;;4.22;1.50;;;13.50;99.90;;;;;;4967331;28;20030;-60
2022/08/27 02:16:41;;;;;;;3.85;1.65;;;13.40;99.90;;;;;;4968303;28;20035;-61
2022/08/27 02:19:07;;;;;;;9.23;1.70;;;13.40;99.90;;;;;;4965777;28;20027;-60
2022/08/27 02:21:33;;;;;;;3.65;1.17;;;13.40;99.90;;;;;;4963731;28;20450;-60
2022/08/27 02:23:59;;;;;;;3.10;1.30;;;13.40;99.90;;;;;;4962845;28;20027;-60
2022/08/27 02:26:26;;;;;;;4.00;0.90;;;13.30;99.90;;;;;;4966085;28;20041;-60
2022/08/27 02:28:52;;;;;;;5.07;1.40;;;13.30;99.90;;;;;;4967699;28;20110;-60
2022/08/27 02:31:18;;;;;;;6.18;1.73;;;13.20;99.90;;;;;;4960002;28;20491;-60
2022/08/27 02:33:43;;;;;;;2.47;1.15;;;13.20;99.90;;;;;;4970461;28;20057;-60
2022/08/27 02:36:09;;;;;;;4.03;1.20;;;13.20;99.90;;;;;;4957305;28;20042;-60
2022/08/27 02:38:35;;;;;;;3.60;1.77;;;13.10;99.90;;;;;;4966223;28;20037;-60
2022/08/27 02:41:01;;;;;;;3.97;1.20;;;13.10;99.90;;;;;;4958404;28;20463;-60
2022/08/27 02:43:27;;;;;;;7.95;1.67;;;13.00;99.90;;;;;;4960406;28;20035;-60
2022/08/27 02:45:53;;;;;;;2.35;0.98;;;13.00;99.90;;;;;;4961773;28;20110;-60
2022/08/27 02:48:19;;;;;;;4.45;1.15;;;13.00;99.90;;;;;;4958912;28;20035;-60
2022/08/27 02:50:45;;;;;;;3.65;1.40;;;12.90;99.90;;;;;;4958735;28;20027;-60
2022/08/27 02:53:11;;;;;;;2.35;1.30;;;13.00;99.90;;;;;;4960373;28;20035;-60
2022/08/27 02:55:36;;;;;;;4.97;1.40;;;13.00;99.90;;;;;;4956909;28;20034;-60
2022/08/27 02:58:03;;;;;;;3.92;1.83;;;13.00;99.90;;;;;;4956902;28;20031;-59
2022/08/27 03:00:29;;;;;;;6.82;1.95;;;12.90;99.90;;;;;;4960784;28;20027;-59
2022/08/27 03:02:55;;;;;;;4.03;1.60;;;13.00;99.90;;;;;;4958333;28;20491;-60
2022/08/27 03:05:21;;;;;;;2.17;1.30;;;12.90;99.90;;;;;;4957859;28;20035;-60
2022/08/27 03:07:48;;;;;;;5.53;1.45;;;13.00;99.90;;;;;;4955677;28;20038;-60
2022/08/27 03:10:15;;;;;;;3.97;1.33;;;13.00;99.90;;;;;;4957618;28;20085;-60
2022/08/27 03:12:41;;;;;;;7.10;1.42;;;13.00;99.90;;;;;;4959750;28;20085;-60
2022/08/27 03:15:10;;;;;;;2.40;1.52;;;12.90;99.90;;;;;;4956120;28;20027;-61
2022/08/27 03:20:21;;;;;;;4.75;3.10;;;12.80;99.90;;;;;;4954861;28;20513;-59
2022/08/27 03:22:47;;;;;;;5.18;3.25;;;12.80;99.90;;;;;;4956088;28;20415;-60
2022/08/27 03:25:13;;;;;;;7.00;3.17;;;12.70;99.90;;;;;;4956518;28;20035;-60
2022/08/27 03:27:39;;;;;;;3.83;2.53;;;12.70;99.90;;;;;;4955469;28;20452;-60
2022/08/27 03:30:09;;;;;;;5.57;2.63;;;12.60;99.90;;;;;;4957264;28;20026;-59
2022/08/27 03:32:35;;;;;;;4.82;2.15;;;12.60;99.90;;;;;;4953797;28;20081;-60
2022/08/27 03:35:01;;;;;;;4.40;3.00;;;12.50;99.90;;;;;;4957486;28;20047;-59
2022/08/27 03:37:27;;;;;;;6.40;2.90;;;12.50;99.90;;;;;;4953277;28;20506;-60
2022/08/27 03:39:53;;;;;;;7.00;2.25;;;12.50;99.90;;;;;;4954279;28;20035;-60
2022/08/27 03:42:20;;;;;;;3.45;2.03;;;12.50;99.90;;;;;;4955023;28;20173;-59
2022/08/27 03:44:46;;;;;;;4.07;2.30;;;12.50;99.90;;;;;;4955214;28;20023;-60
2022/08/27 03:47:11;;;;;;;4.68;1.63;;;12.60;99.90;;;;;;4959997;28;20360;-60
2022/08/27 03:49:37;;;;;;;5.20;2.10;;;12.60;99.90;;;;;;4951577;28;20027;-60
2022/08/27 03:52:03;;;;;;;5.13;1.80;;;12.70;99.90;;;;;;4955045;28;20031;-60
2022/08/27 03:54:30;;;;;;;3.08;2.78;;;12.70;99.90;;;;;;4959134;28;20537;-60
2022/08/27 03:56:56;;;;;;;5.68;2.70;;;12.80;99.90;;;;;;4957566;28;20495;-60
2022/08/27 03:59:21;;;;;;;3.70;2.80;;;12.80;99.90;;;;;;4960572;28;20035;-61
2022/08/27 04:01:47;;;;;;;3.33;2.38;;;12.90;99.90;;;;;;4957082;28;20039;-60
2022/08/27 04:04:13;;;;;;;3.30;1.38;;;12.90;99.90;;;;;;4957175;28;20027;-60
2022/08/27 04:06:39;;;;;;;1.77;1.20;;;13.00;99.90;;;;;;4955148;28;20039;-60
2022/08/27 04:09:05;;;;;;;3.00;1.42;;;13.00;99.90;;;;;;4961510;28;20042;-60
2022/08/27 04:11:33;;;;;;;5.72;1.40;;;13.00;99.90;;;;;;4964314;28;20368;-60
2022/08/27 04:13:59;;;;;;;1.55;1.33;;;13.00;99.90;;;;;;4953989;28;20023;-60
2022/08/27 04:16:26;;;;;;;4.18;1.92;;;13.10;99.90;;;;;;4957785;28;20118;-60
2022/08/27 04:18:54;;;;;;;5.47;1.88;;;13.10;99.90;;;;;;4957841;28;20023;-59
2022/08/27 04:21:21;;;;;;;5.22;2.00;;;13.00;99.90;;;;;;4956995;28;20035;-63
2022/08/27 04:23:47;;;;;;;9.20;2.45;;;13.00;99.90;;;;;;4959153;28;20035;-62
2022/08/27 04:26:15;;;;;;;6.03;2.03;;;12.90;99.90;;;;;;4959471;28;20104;-61
2022/08/27 04:29:15;;;;;;;3.30;1.73;;;12.90;99.90;;;;;;4955055;28;20054;-60
2022/08/27 04:31:44;;;;;;;9.82;2.15;;;12.80;99.90;;;;;;4954863;28;20467;-61
2022/08/27 04:34:09;;;;;;;3.53;1.75;;;12.80;99.90;;;;;;4954693;28;20074;-59
2022/08/27 04:36:35;;;;;;;3.60;1.42;;;12.80;99.90;;;;;;4958802;28;20099;-60
2022/08/27 04:39:01;;;;;;;8.27;2.03;;;12.70;99.90;;;;;;4959070;28;20027;-60
2022/08/27 04:41:32;;;;;;;3.40;2.40;;;12.70;99.90;;;;;;4959337;28;20093;-61
2022/08/27 04:44:02;;;;;;;3.45;2.65;;;12.60;99.90;;;;;;4975519;28;20554;-60
2022/08/27 04:46:29;;;;;;;5.70;2.45;;;12.50;99.90;;;;;;4966541;28;20151;-59
2022/08/27 04:48:58;;;;;;;3.58;2.40;;;12.40;99.90;;;;;;4970379;28;20504;-59
2022/08/27 04:51:24;;;;;;;5.72;2.90;;;12.40;99.90;;;;;;4967827;28;20263;-60
2022/08/27 04:53:50;;;;;;;7.00;2.35;;;12.40;99.90;;;;;;4970775;28;20035;-60
2022/08/27 04:56:17;;;;;;;4.38;2.63;;;12.40;99.90;;;;;;4966847;28;20061;-60
2022/08/27 04:58:43;;;;;;;7.22;2.63;;;12.30;99.90;;;;;;4960995;28;20106;-60
2022/08/27 05:01:15;;;;;;;9.25;3.55;;;12.40;99.90;;;;;;4969440;28;20122;-59
2022/08/27 05:03:41;;;;;;;7.50;2.30;;;12.40;99.90;;;;;;4970178;28;20141;-59
2022/08/27 05:06:07;;;;;;;3.70;2.30;;;12.40;99.90;;;;;;4969158;28;20102;-59
2022/08/27 05:08:33;;;;;;;4.85;1.98;;;12.40;99.90;;;;;;4969080;28;20837;-60
2022/08/27 05:11:00;;;;;;;6.90;2.70;;;12.40;99.90;;;;;;4969480;28;20030;-60
2022/08/27 05:13:27;;;;;;;5.90;2.50;;;12.40;99.90;;;;;;4964466;28;20027;-60
2022/08/27 05:16:01;;;;;;;3.75;1.92;;;12.40;99.90;;;;;;4969376;28;20073;-60
2022/08/27 05:18:28;;;;;;;3.30;1.48;;;12.40;99.90;;;;;;4961633;28;20035;-60
2022/08/27 05:20:54;;;;;;;4.18;2.60;;;12.30;99.90;;;;;;4967943;28;20114;-60
2022/08/27 05:23:19;;;;;;;7.38;2.42;;;12.30;99.90;;;;;;4968201;28;20113;-60
2022/08/27 05:25:47;;;;;;;5.32;2.22;;;12.40;99.90;;;;;;4969491;28;20019;-60
2022/08/27 05:28:14;;;;;;;3.38;2.10;;;12.40;99.90;;;;;;4969270;28;20514;-59
2022/08/27 05:30:43;;;;;;;4.57;2.45;;;12.50;99.90;;;;;;4969688;28;20061;-60
2022/08/27 05:33:09;;;;;;;4.47;2.42;;;12.50;99.90;;;;;;4969065;28;20133;-60
2022/08/27 05:36:00;;;;;;;3.72;2.33;;;12.50;99.90;;;;;;4967197;28;20158;-60
2022/08/27 05:38:28;;;;;;;5.00;1.90;;;12.50;99.90;;;;;;4968149;28;20031;-60
2022/08/27 05:41:24;;;;;;;4.03;2.00;;;12.50;99.90;;;;;;4981571;28;20041;-60
2022/08/27 05:43:50;;;;;;;5.90;2.63;;;12.60;99.90;;;;;;4963641;28;20026;-60
2022/08/27 05:46:20;;;;;;;3.65;1.95;;;12.70;99.90;;;;;;4974076;28;20391;-59
2022/08/27 05:48:46;;;;;;;5.05;2.90;;;12.70;99.90;;;;;;4969133;28;20054;-59
2022/08/27 05:51:19;;;;;;;4.07;2.30;;;12.70;99.90;;;;;;4967788;28;20398;-59
2022/08/27 05:53:45;;;;;;;4.60;1.98;;;12.70;99.90;;;;;;4976011;28;20498;-59
2022/08/27 05:56:17;;;;;;;11.80;8.00;;;12.70;99.90;;;;;;4970413;28;20018;-59
2022/08/27 06:01:28;;;;;;;4.30;2.88;;;12.90;99.90;;;;;;4964944;28;20147;-60
2022/08/27 06:03:55;;;;;;;3.90;2.17;;;12.90;99.90;;;;;;4972705;28;20041;-59
2022/08/27 06:06:21;;;;;;;6.15;1.85;;;12.90;99.90;;;;;;4971887;28;20035;-60
2022/08/27 06:08:48;;;;;;;5.22;2.55;;;12.90;99.90;;;;;;4972287;28;20038;-59
2022/08/27 06:11:14;;;;;;;5.43;2.78;;;12.90;99.90;;;;;;4972204;28;20471;-60
2022/08/27 06:13:40;;;;;;;13.30;3.38;;;13.00;99.90;;;;;;4965509;28;20030;-60
2022/08/27 06:16:07;;;;;;;7.65;3.50;;;13.00;99.90;;;;;;4970082;28;20364;-60
2022/08/27 06:18:35;;;;;;;8.80;3.33;;;13.10;99.90;;;;;;4968151;28;20027;-61
2022/08/27 06:21:00;;;;;;;8.18;3.25;;;13.10;99.90;;;;;;4978647;28;20035;-61
2022/08/27 06:23:26;;;;;;;10.27;3.45;;;13.10;99.90;;;;;;4969415;28;20042;-61
2022/08/27 06:25:52;;;;;;;7.55;3.50;;;13.20;99.90;;;;;;4968804;28;20479;-61
2022/08/27 06:28:22;;;;;;;6.97;3.40;;;13.30;99.90;;;;;;4969321;28;20122;-62
2022/08/27 06:30:48;;;;;;;5.38;2.78;;;13.40;99.90;;;;;;4974582;28;20054;-61
2022/08/27 06:33:14;;;;;;;3.70;2.75;;;13.40;99.90;;;;;;4977606;28;20054;-61
2022/08/27 06:35:40;;;;;;;9.23;3.75;;;13.50;99.90;;;;;;4977527;28;20538;-61
2022/08/27 06:38:06;;;;;;;8.13;3.45;;;13.60;99.90;;;;;;4974395;28;20438;-61
2022/08/27 06:40:32;;;;;;;7.35;3.53;;;13.60;99.90;;;;;;4974664;28;20135;-60
2022/08/27 06:43:00;;;;;;;6.22;3.58;;;13.70;99.90;;;;;;4973033;28;20391;-61
2022/08/27 06:45:26;;;;;;;8.43;3.88;;;13.60;99.90;;;;;;4976040;28;20030;-59
2022/08/27 06:47:52;;;;;;;7.03;4.13;;;13.70;99.90;;;;;;4982187;28;20513;-60
2022/08/27 06:50:19;;;;;;;8.73;3.45;;;13.80;99.90;;;;;;4967314;28;20458;-59
2022/08/27 06:52:46;;;;;;;7.28;3.58;;;13.80;99.90;;;;;;4967429;28;20031;-59
2022/08/27 06:55:12;;;;;;;9.32;3.90;;;13.90;99.90;;;;;;4971722;28;20026;-60
2022/08/27 06:57:37;;;;;;;4.32;3.53;;;14.00;99.90;;;;;;4969815;28;20026;-62
2022/08/27 07:00:06;;;;;;;7.35;3.40;;;14.00;99.90;;;;;;4971223;28;20037;-61
2022/08/27 07:02:32;;;;;;;7.60;3.90;;;14.10;99.90;;;;;;4968101;28;20045;-61
2022/08/27 07:04:57;;;;;;;10.45;3.28;;;14.10;99.90;;;;;;4972488;28;20513;-61
2022/08/27 07:07:23;;;;;;;8.40;3.80;;;14.20;99.90;;;;;;4966804;28;20034;-61
2022/08/27 07:09:49;;;;;;;8.18;3.55;;;14.20;99.90;;;;;;4972726;28;20462;-61
2022/08/27 07:12:14;;;;;;;6.72;3.45;;;14.20;99.90;;;;;;4968613;28;20475;-61
2022/08/27 07:14:41;;;;;;;8.35;3.40;;;14.20;99.90;;;;;;4978202;28;20027;-61
2022/08/27 07:17:07;;;;;;;4.63;3.08;;;14.40;99.90;;;;;;4973357;28;20037;-61
2022/08/27 07:19:37;;;;;;;12.13;3.58;;;14.40;99.90;;;;;;4965820;28;20023;-60
2022/08/27 07:22:03;;;;;;;10.90;3.97;;;14.50;99.90;;;;;;4963307;28;20043;-60
2022/08/27 07:24:29;;;;;;;13.75;4.22;;;14.60;99.90;;;;;;4972230;28;20022;-60
2022/08/27 07:26:54;;;;;;;5.88;3.90;;;14.80;99.90;;;;;;4970512;28;20034;-60
2022/08/27 07:29:20;;;;;;;6.70;3.45;;;14.90;99.90;;;;;;4963474;28;20147;-61
2022/08/27 07:31:46;;;;;;;5.43;3.08;;;15.00;99.90;;;;;;4967270;28;20038;-61
2022/08/27 07:34:12;;;;;;;9.13;4.00;;;15.00;99.90;;;;;;4971886;28;20129;-60
2022/08/27 07:36:37;;;;;;;4.82;3.17;;;15.10;99.90;;;;;;4968968;28;20118;-61
2022/08/27 07:39:04;;;;;;;6.35;3.10;;;15.20;99.90;;;;;;4968227;28;20026;-61
2022/08/27 07:41:31;;;;;;;9.75;3.35;;;15.30;99.90;;;;;;4965034;28;20090;-61
2022/08/27 07:46:43;;;;;;;8.70;2.88;;;15.50;99.90;;;;;;4964929;28;20038;-62
2022/08/27 07:49:10;;;;;;;7.32;3.00;;;15.60;99.90;;;;;;4965484;28;20019;-62
2022/08/27 07:51:36;;;;;;;6.97;3.05;;;15.70;99.90;;;;;;4963581;28;20034;-66
2022/08/27 07:54:02;;;;;;;6.43;3.05;;;15.80;99.90;;;;;;4963240;28;20139;-62
2022/08/27 07:56:28;;;;;;;9.23;2.30;;;15.90;99.90;;;;;;4966050;28;20519;-61
2022/08/27 07:58:53;;;;;;;3.50;2.20;;;15.90;99.90;;;;;;4965272;28;20126;-60
2022/08/27 08:01:20;;;;;;;8.40;2.40;;;16.00;99.90;;;;;;4957123;28;20086;-59
2022/08/27 08:03:46;;;;;;;8.60;2.65;;;16.10;99.90;;;;;;4955079;28;20094;-60
2022/08/27 08:06:13;;;;;;;4.45;2.30;;;16.20;99.90;;;;;;4958859;28;20042;-60
2022/08/27 08:08:40;;;;;;;4.63;2.50;;;16.40;99.90;;;;;;4964982;28;20085;-60
2022/08/27 08:11:15;;;;;;;7.60;2.25;;;16.50;99.90;;;;;;4966902;28;20073;-60
2022/08/27 08:13:42;;;;;;;6.20;2.05;;;16.60;99.90;;;;;;4960026;28;20085;-60
2022/08/27 08:16:08;;;;;;;3.53;1.98;;;16.70;99.90;;;;;;4962424;28;20030;-60
2022/08/27 08:18:34;;;;;;;5.78;2.45;;;16.90;99.90;;;;;;4960558;28;20933;-61
2022/08/27 08:21:11;;;;;;;6.32;2.65;;;17.00;99.90;;;;;;4972248;28;20041;-60
2022/08/27 08:23:37;;;;;;;7.90;2.60;;;17.10;99.90;;;;;;4959268;28;20502;-61
2022/08/27 08:26:03;;;;;;;5.53;2.80;;;17.20;99.90;;;;;;4961430;28;20118;-59
2022/08/27 08:28:29;;;;;;;8.15;2.30;;;17.40;99.90;;;;;;4958149;28;20026;-59
2022/08/27 08:30:56;;;;;;;6.03;2.10;;;17.50;99.90;;;;;;4962235;28;20026;-59
2022/08/27 08:33:22;;;;;;;5.22;2.20;;;17.70;99.90;;;;;;4961922;28;20051;-59
2022/08/27 08:35:48;;;;;;;3.75;1.48;;;17.80;99.90;;;;;;4964940;28;20049;-60
2022/08/27 08:38:15;;;;;;;3.92;1.40;;;18.00;99.90;;;;;;4966749;28;20034;-60
2022/08/27 08:40:53;;;;;;;4.07;1.30;;;18.20;99.90;;;;;;4961450;28;20026;-60
2022/08/27 08:43:25;;;;;;;5.22;1.42;;;18.50;99.90;;;;;;4954562;28;20057;-61
2022/08/27 08:45:51;;;;;;;3.42;1.17;;;19.00;99.90;;;;;;4971403;28;20038;-60
2022/08/27 08:48:21;;;;;;;4.82;1.33;;;19.20;99.90;;;;;;4969402;28;20081;-59
2022/08/27 08:51:04;;;;;;;6.03;1.70;;;19.60;99.90;;;;;;4969624;28;20034;-60
2022/08/27 08:53:41;;;;;;;7.78;1.63;;;20.00;99.90;;;;;;4967740;28;20026;-59
2022/08/27 08:56:11;;;;;;;4.00;1.10;;;20.20;99.90;;;;;;4967306;28;20037;-60
2022/08/27 08:58:58;;;;;;;3.65;1.50;;;20.30;99.90;;;;;;4962774;28;20038;-59
2022/08/27 09:01:25;;;;;;;7.88;1.60;;;20.30;99.90;;;;;;4977531;28;20121;-61
2022/08/27 09:04:03;;;;;;;6.18;1.73;;;20.40;99.90;;;;;;4970463;28;20096;-61
2022/08/27 09:06:39;;;;;;;4.60;1.83;;;20.50;99.90;;;;;;4966815;28;20121;-62
2022/08/27 09:09:20;;;;;;;5.30;1.95;;;20.50;99.90;;;;;;4967063;28;20042;-60
2022/08/27 09:12:10;;;;;;;8.02;2.00;;;20.40;99.90;;;;;;4967089;28;20054;-60
2022/08/27 09:14:51;;;;;;;5.80;1.75;;;20.40;99.90;;;;;;4964086;28;20031;-60
2022/08/27 09:17:17;;;;;;;6.75;1.88;;;20.60;99.90;;;;;;4963247;28;20483;-60
2022/08/27 09:19:43;;;;;;;6.45;1.70;;;20.70;99.90;;;;;;4966024;28;20578;-60
2022/08/27 09:22:11;;;;;;;3.85;1.65;;;21.00;99.90;;;;;;4966915;28;20396;-60
2022/08/27 09:24:40;;;;;;;6.88;2.03;;;21.30;99.90;;;;;;4964235;28;20582;-60
2022/08/27 09:27:06;;;;;;;7.20;1.50;;;21.70;99.90;;;;;;4965935;28;20029;-60
2022/08/27 09:29:32;;;;;;;6.53;1.80;;;21.90;99.90;;;;;;4963115;28;20078;-60
2022/08/27 09:32:05;;;;;;;7.40;1.85;;;22.20;99.90;;;;;;4977710;28;20023;-60
2022/08/27 09:34:36;;;;;;;8.68;1.65;;;22.40;99.90;;;;;;4963169;28;20133;-60
2022/08/27 09:37:15;;;;;;;4.68;1.73;;;22.40;99.90;;;;;;4966482;28;20554;-60
2022/08/27 09:39:47;;;;;;;7.85;2.25;;;22.50;99.90;;;;;;4964686;28;20059;-60
2022/08/27 09:42:39;;;;;;;5.75;1.67;;;22.50;99.90;;;;;;4962488;28;20043;-61
2022/08/27 09:45:24;;;;;;;7.00;2.10;;;22.50;99.90;;;;;;4964650;28;20398;-60
2022/08/27 09:47:53;;;;;;;4.97;2.05;;;22.40;99.90;;;;;;4965292;28;21510;-60
2022/08/27 09:50:22;;;;;;;4.35;1.90;;;22.30;99.90;;;;;;4963169;28;20035;-60
2022/08/27 09:52:54;;;;;;;8.40;1.83;;;22.20;99.90;;;;;;4965224;28;20026;-61
2022/08/27 09:55:45;;;;;;;6.00;1.55;;;22.20;99.90;;;;;;4964455;28;20031;-60
2022/08/27 09:58:28;;;;;;;8.40;1.80;;;22.10;99.90;;;;;;4962540;28;20035;-61
2022/08/27 10:01:04;;;;;;;6.03;1.90;;;22.30;99.90;;;;;;4965149;28;20121;-61
2022/08/27 10:03:30;;;;;;;3.13;1.42;;;22.50;99.90;;;;;;4964891;28;20081;-61
2022/08/27 10:05:56;;;;;;;4.78;1.75;;;22.70;99.90;;;;;;4965755;28;20031;-61
2022/08/27 10:08:37;;;;;;;7.78;1.90;;;23.20;99.90;;;;;;4967427;28;20117;-61
2022/08/27 10:11:29;;;;;;;6.45;2.05;;;23.60;99.90;;;;;;4968766;28;20031;-60
2022/08/27 10:13:58;;;;;;;;;;;24.10;99.90;;;;;;4967147;28;20043;-61
2022/08/27 10:16:35;;;;;;;6.65;2.10;;;24.20;99.90;;;;;;4967181;28;19914;-61
2022/08/27 10:19:10;;;;;;;7.63;2.13;;;24.10;99.90;;;;;;4969376;28;20042;-61
2022/08/27 10:21:50;;;;;;;5.65;1.55;;;24.10;99.90;;;;;;4967614;28;20097;-61
2022/08/27 10:24:21;;;;;;;8.02;2.25;;;23.90;99.90;;;;;;4965350;28;20483;-60
2022/08/27 10:26:54;;;;;;;6.38;1.98;;;23.80;99.90;;;;;;4969639;28;20031;-63
2022/08/27 10:29:49;;;;;;;7.72;1.98;;;23.60;99.90;;;;;;4965483;28;20174;-60
2022/08/27 10:32:27;;;;;;;6.72;1.95;;;23.50;99.90;;;;;;4969560;28;20039;-60
2022/08/27 10:35:05;;;;;;;6.25;1.63;;;23.50;99.90;;;;;;4967264;28;20039;-60
2022/08/27 10:37:40;;;;;;;8.45;1.83;;;23.50;99.90;;;;;;4968735;28;20034;-60
2022/08/27 10:40:19;;;;;;;3.70;1.50;;;23.80;99.90;;;;;;4966543;28;20031;-60
2022/08/27 10:42:53;;;;;;;4.95;2.05;;;24.00;99.90;;;;;;4966849;28;20121;-60
2022/08/27 10:45:51;;;;;;;5.50;1.65;;;24.10;99.90;;;;;;4966884;28;20054;-59
2022/08/27 10:48:37;;;;;;;4.97;1.70;;;24.40;99.90;;;;;;4971107;28;20037;-61
2022/08/27 10:51:55;;;;;;;5.20;1.40;;;24.70;99.90;;;;;;4973668;28;20038;-61
2022/08/27 10:54:38;;;;;;;3.95;2.00;;;24.80;99.90;;;;;;4959713;28;20027;-60
2022/08/27 10:57:32;;;;;;;7.63;2.10;;;24.80;99.90;;;;;;4969103;28;20034;-63
2022/08/27 11:00:11;;;;;;;7.43;1.70;;;25.20;99.90;;;;;;4966348;28;20037;-62
2022/08/27 11:02:45;;;;;;;6.20;1.23;;;25.20;99.90;;;;;;4962324;28;20125;-62
2022/08/27 11:05:35;;;;;;;5.25;1.60;;;24.70;99.90;;;;;;4976091;28;20041;-61
2022/08/27 11:08:32;;;;;;;7.05;2.63;;;24.70;99.90;;;;;;4971234;28;20177;-61
2022/08/27 11:11:06;;;;;;;6.63;1.65;;;24.40;99.90;;;;;;4976223;28;20105;-58
2022/08/27 11:13:45;;;;;;;4.55;1.67;;;23.90;99.90;;;;;;4973263;28;20073;-61
2022/08/27 11:16:19;;;;;;;3.47;1.20;;;23.60;99.90;;;;;;4967641;28;20062;-61
2022/08/27 11:19:09;;;;;;;6.22;1.50;;;23.40;99.90;;;;;;4968130;28;20038;-61
2022/08/27 11:22:01;;;;;;;7.07;1.40;;;23.30;99.90;;;;;;4971156;28;20057;-60
2022/08/27 11:25:01;;;;;;;4.82;1.40;;;23.30;99.90;;;;;;4969672;28;20038;-60
2022/08/27 11:27:31;;;;;;;5.47;1.85;;;23.20;99.90;;;;;;4968229;28;20027;-60
2022/08/27 11:30:17;;;;;;;5.43;2.00;;;23.20;99.90;;;;;;4969779;28;20022;-60
2022/08/27 11:32:58;;;;;;;5.43;2.72;;;23.30;99.90;;;;;;4983591;28;20031;-60
2022/08/27 11:35:43;;;;;;;3.53;1.60;;;23.50;99.90;;;;;;4969238;28;20094;-61
2022/08/27 11:38:26;;;;;;;5.00;1.67;;;23.50;99.90;;;;;;4963707;28;20031;-61
2022/08/27 11:41:14;;;;;;;6.38;1.67;;;23.60;99.90;;;;;;4967664;28;20114;-59
2022/08/27 11:43:41;;;;;;;3.05;1.30;;;23.50;99.90;;;;;;4967769;28;20479;-60
2022/08/27 11:46:08;;;;;;;2.28;1.15;;;24.00;99.90;;;;;;4968327;28;20113;-60
2022/08/27 11:48:40;;;;;;;5.10;1.10;;;24.70;99.90;;;;;;4965638;28;20117;-61
2022/08/27 11:51:11;;;;;;;4.00;1.30;;;25.70;99.90;;;;;;4968952;28;20030;-61
2022/08/27 11:53:40;;;;;;;4.85;1.38;;;26.90;99.90;;;;;;4964764;28;20089;-61
2022/08/27 11:56:35;;;;;;;4.20;0.95;;;27.70;99.00;;;;;;4969051;28;20165;-61
2022/08/27 11:59:25;;;;;;;3.47;1.10;;;27.40;97.10;;;;;;4972287;28;20093;-61
2022/08/27 12:01:53;;;;;;;4.72;1.38;;;27.70;95.60;;;;;;4968506;28;20031;-61
2022/08/27 12:04:24;;;;;;;4.03;1.10;;;27.70;94.60;;;;;;4975775;28;20126;-61
2022/08/27 12:07:12;;;;;;;1.45;1.00;;;27.80;93.60;;;;;;4971726;28;20459;-61
2022/08/27 12:09:56;;;;;;;4.20;1.10;;;27.80;92.20;;;;;;4963646;28;20039;-61
2022/08/27 12:13:01;;;;;;;5.18;0.82;;;27.30;92.70;;;;;;4976366;28;20435;-61
2022/08/27 12:16:07;;;;;;;3.10;1.17;;;26.20;93.70;;;;;;4967119;28;20113;-60
2022/08/27 12:18:52;;;;;;;6.10;1.25;;;25.50;95.50;;;;;;4976501;28;20034;-60
2022/08/27 12:21:37;;;;;;;3.67;1.50;;;25.00;96.70;;;;;;4971691;28;20046;-61
2022/08/27 12:24:36;;;;;;;4.10;1.20;;;24.50;98.70;;;;;;4928400;28;20050;-61
2022/08/27 12:27:25;;;;;;;1.70;1.25;;;23.80;99.90;;;;;;4967858;28;20026;-61
2022/08/27 12:30:20;;;;;;;7.65;1.38;;;23.20;99.90;;;;;;4962306;28;20424;-61
2022/08/27 12:32:50;;;;;;;2.38;0.95;;;23.10;99.90;;;;;;4966182;28;20026;-61
2022/08/27 12:35:38;;;;;;;5.32;1.42;;;23.00;99.90;;;;;;4965071;28;20054;-60
2022/08/27 12:38:04;;;;;;;4.03;0.90;;;23.00;99.90;;;;;;4965934;28;20038;-61
2022/08/27 12:40:38;;;;;;;4.07;1.15;;;22.80;99.90;;;;;;4964474;28;20446;-61
2022/08/27 12:43:18;;;;;;;2.05;0.98;;;22.70;99.90;;;;;;4965150;28;20446;-61
2022/08/27 12:45:57;;;;;;;2.97;1.20;;;22.80;99.90;;;;;;4966657;28;20031;-60
2022/08/27 12:48:28;;;;;;;4.30;1.38;;;22.90;99.90;;;;;;4964359;28;20035;-61
2022/08/27 12:50:57;;;;;;;3.50;1.52;;;23.10;99.90;;;;;;4972688;28;20470;-61
2022/08/27 12:53:31;;;;;;;4.38;1.00;;;23.30;99.90;;;;;;4966183;28;20027;-60
2022/08/27 12:56:00;;;;;;;3.92;0.90;;;24.70;99.90;;;;;;4963398;28;20023;-60
2022/08/27 12:59:04;;;;;;;3.92;1.20;;;25.80;97.10;;;;;;4969755;28;20066;-61
2022/08/27 13:01:56;;;;;;;3.80;1.20;;;26.90;94.00;;;;;;4946604;28;20039;-61
2022/08/27 13:04:24;;;;;;;;;;;26.60;91.30;;;;;;4947987;28;20068;-58
2022/08/27 13:06:50;;;;;;;2.42;0.98;;;25.30;94.10;;;;;;4946207;28;20470;-60
2022/08/27 13:09:28;;;;;;;4.32;1.20;;;24.40;96.80;;;;;;4940294;28;20431;-60
2022/08/27 13:11:55;;;;;;;3.47;1.20;;;23.90;98.00;;;;;;4948696;29;20531;-60
2022/08/27 13:14:24;;;;;;;6.50;1.35;;;23.50;99.80;;;;;;4947475;29;20049;-61
2022/08/27 13:16:52;;;;;;;6.78;1.40;;;23.20;99.90;;;;;;4947494;28;20042;-60